createdAt,value
2018-11-05T00:00:30.194Z,40.80
2018-11-05T00:01:30.175Z,42.40
2018-11-05T00:02:30.149Z,43.70
2018-11-05T00:03:30.133Z,44.40
2018-11-05T00:04:30.114Z,44.20
2018-11-05T00:05:30.097Z,43.90
2018-11-05T00:06:30.078Z,44.10
2018-11-05T00:07:30.061Z,43.70
2018-11-05T00:08:30.047Z,44.00
2018-11-05T00:09:30.021Z,45.20
2018-11-05T00:10:30.004Z,43.90
2018-11-05T00:11:29.986Z,43.80
2018-11-05T00:12:29.972Z,45.10
2018-11-05T00:13:29.946Z,45.30
2018-11-05T00:14:29.928Z,44.90
2018-11-05T00:15:29.913Z,44.00
2018-11-05T00:16:29.888Z,44.80
2018-11-05T00:17:29.872Z,45.80
2018-11-05T00:18:29.858Z,45.00
2018-11-05T00:19:29.838Z,45.70
2018-11-05T00:20:29.818Z,45.90
2018-11-05T00:21:29.809Z,46.20
2018-11-05T00:22:29.788Z,45.40
2018-11-05T00:23:29.763Z,45.00
2018-11-05T00:24:29.748Z,46.10
2018-11-05T00:25:29.727Z,46.10
2018-11-05T00:26:29.707Z,47.00
2018-11-05T00:27:29.709Z,47.40
2018-11-05T00:28:29.675Z,46.90
2018-11-05T00:29:29.652Z,45.40
2018-11-05T00:30:29.631Z,45.50
2018-11-05T00:31:29.616Z,46.10
2018-11-05T00:32:29.599Z,45.80
2018-11-05T00:33:29.575Z,45.80
2018-11-05T00:34:29.564Z,47.30
2018-11-05T00:35:29.540Z,45.70
2018-11-05T00:36:29.520Z,46.60
2018-11-05T00:37:29.512Z,45.30
2018-11-05T00:38:29.488Z,46.70
2018-11-05T00:39:29.470Z,47.40
2018-11-05T00:40:29.450Z,46.20
2018-11-05T00:41:29.432Z,46.80
2018-11-05T00:42:29.416Z,48.10
2018-11-05T00:43:29.394Z,46.40
2018-11-05T00:44:29.372Z,48.40
2018-11-05T00:45:29.370Z,46.40
2018-11-05T00:46:29.338Z,46.30
2018-11-05T00:47:29.330Z,47.70
2018-11-05T00:48:29.304Z,47.10
2018-11-05T00:49:29.282Z,48.60
2018-11-05T00:50:29.265Z,47.00
2018-11-05T00:51:29.252Z,47.90
2018-11-05T00:52:29.228Z,47.80
2018-11-05T00:53:29.206Z,47.90
2018-11-05T00:54:29.191Z,48.00
2018-11-05T00:55:29.174Z,47.30
2018-11-05T00:56:29.156Z,47.60
2018-11-05T00:57:29.138Z,47.40
2018-11-05T00:58:29.175Z,48.80
2018-11-05T00:59:29.101Z,48.50
2018-11-05T01:00:29.079Z,46.90
2018-11-05T01:01:29.065Z,47.60
2018-11-05T01:02:29.044Z,48.90
2018-11-05T01:03:29.026Z,47.90
2018-11-05T01:04:29.006Z,47.90
2018-11-05T01:05:28.990Z,47.30
2018-11-05T01:06:28.974Z,47.40
2018-11-05T01:07:28.953Z,51.50
2018-11-05T01:08:28.932Z,48.00
2018-11-05T01:09:28.917Z,48.80
2018-11-05T01:10:28.892Z,47.70
2018-11-05T01:11:28.878Z,48.60
2018-11-05T01:12:28.863Z,48.00
2018-11-05T01:13:28.846Z,48.10
2018-11-05T01:14:28.824Z,49.30
2018-11-05T01:15:28.816Z,49.60
2018-11-05T01:16:28.784Z,49.40
2018-11-05T01:17:28.770Z,49.40
2018-11-05T01:18:28.747Z,49.40
2018-11-05T01:19:28.730Z,48.70
2018-11-05T01:20:28.713Z,49.30
2018-11-05T01:21:28.694Z,50.80
2018-11-05T01:22:28.680Z,50.20
2018-11-05T01:23:28.658Z,50.50
2018-11-05T01:24:28.639Z,48.90
2018-11-05T01:25:28.624Z,49.70
2018-11-05T01:26:28.607Z,50.10
2018-11-05T01:27:28.590Z,49.90
2018-11-05T01:28:28.567Z,49.30
2018-11-05T01:29:28.547Z,50.30
2018-11-05T01:30:28.530Z,49.50
2018-11-05T01:31:28.513Z,48.60
2018-11-05T01:32:28.490Z,48.50
2018-11-05T01:33:28.480Z,49.80
2018-11-05T01:34:28.454Z,50.20
2018-11-05T01:35:28.441Z,49.40
2018-11-05T01:36:28.418Z,50.10
2018-11-05T01:37:28.400Z,49.70
2018-11-05T01:38:28.387Z,49.50
2018-11-05T01:39:28.368Z,48.60
2018-11-05T01:40:28.347Z,49.70
2018-11-05T01:41:28.325Z,46.70
2018-11-05T01:42:28.307Z,49.80
2018-11-05T01:43:28.292Z,48.90
2018-11-05T01:44:28.269Z,50.30
2018-11-05T01:45:28.256Z,47.50
2018-11-05T01:46:28.235Z,49.50
2018-11-05T01:47:28.219Z,49.30
2018-11-05T01:48:28.199Z,48.80
2018-11-05T01:49:28.183Z,49.20
2018-11-05T01:50:28.161Z,49.20
2018-11-05T01:51:28.139Z,49.80
2018-11-05T01:52:28.128Z,48.80
2018-11-05T01:53:28.109Z,49.40
2018-11-05T01:54:28.092Z,48.30
2018-11-05T01:55:28.080Z,48.30
2018-11-05T01:56:28.053Z,49.10
2018-11-05T01:57:28.035Z,49.60
2018-11-05T01:58:28.017Z,48.00
2018-11-05T01:59:28.001Z,47.10
2018-11-05T02:00:27.982Z,48.30
2018-11-05T02:01:27.970Z,48.40
2018-11-05T02:02:27.943Z,47.60
2018-11-05T02:03:27.925Z,48.40
2018-11-05T02:04:27.909Z,48.40
2018-11-05T02:05:27.889Z,50.00
2018-11-05T02:06:27.870Z,46.50
2018-11-05T02:07:27.856Z,48.90
2018-11-05T02:08:27.830Z,49.30
2018-11-05T02:09:27.814Z,48.40
2018-11-05T02:10:27.994Z,48.50
2018-11-05T02:11:27.780Z,48.70
2018-11-05T02:12:27.762Z,50.30
2018-11-05T02:13:27.845Z,49.70
2018-11-05T02:14:27.723Z,48.10
2018-11-05T02:15:27.704Z,48.20
2018-11-05T02:16:27.682Z,47.90
2018-11-05T02:17:27.671Z,48.30
2018-11-05T02:18:27.651Z,47.70
2018-11-05T02:19:27.632Z,48.30
2018-11-05T02:20:27.613Z,49.70
2018-11-05T02:21:27.594Z,48.30
2018-11-05T02:22:27.580Z,47.90
2018-11-05T02:23:27.562Z,48.80
2018-11-05T02:24:27.541Z,49.10
2018-11-05T02:25:27.520Z,48.00
2018-11-05T02:26:27.504Z,49.20
2018-11-05T02:27:27.567Z,47.70
2018-11-05T02:28:27.466Z,47.40
2018-11-05T02:29:27.451Z,48.40
2018-11-05T02:30:27.431Z,48.10
2018-11-05T02:31:27.412Z,47.40
2018-11-05T02:32:27.400Z,49.70
2018-11-05T02:33:27.376Z,48.90
2018-11-05T02:34:27.356Z,46.80
2018-11-05T02:35:27.340Z,46.50
2018-11-05T02:36:27.320Z,46.20
2018-11-05T02:37:27.306Z,47.80
2018-11-05T02:38:27.288Z,47.90
2018-11-05T02:39:27.266Z,48.00
2018-11-05T02:40:27.250Z,49.10
2018-11-05T02:41:27.229Z,50.00
2018-11-05T02:42:27.211Z,48.20
2018-11-05T02:43:27.193Z,48.20
2018-11-05T02:44:27.179Z,48.90
2018-11-05T02:45:27.156Z,47.70
2018-11-05T02:46:27.141Z,47.50
2018-11-05T02:47:27.121Z,47.40
2018-11-05T02:48:27.100Z,46.50
2018-11-05T02:49:27.086Z,47.80
2018-11-05T02:50:27.068Z,47.50
2018-11-05T02:51:27.050Z,48.50
2018-11-05T02:52:27.030Z,45.90
2018-11-05T02:53:27.012Z,45.80
2018-11-05T02:54:27.007Z,47.40
2018-11-05T02:55:26.978Z,46.80
2018-11-05T02:56:26.956Z,46.70
2018-11-05T02:57:26.942Z,49.10
2018-11-05T02:58:26.924Z,47.10
2018-11-05T02:59:26.902Z,47.40
2018-11-05T03:00:26.886Z,46.70
2018-11-05T03:01:26.867Z,45.00
2018-11-05T03:02:26.850Z,44.80
2018-11-05T03:03:26.956Z,46.20
2018-11-05T03:04:26.811Z,45.90
2018-11-05T03:05:26.796Z,46.60
2018-11-05T03:06:26.777Z,45.60
2018-11-05T03:07:26.756Z,47.30
2018-11-05T03:08:26.739Z,47.50
2018-11-05T03:09:26.724Z,46.70
2018-11-05T03:10:26.706Z,47.60
2018-11-05T03:11:26.686Z,47.80
2018-11-05T03:12:26.666Z,46.70
2018-11-05T03:13:26.648Z,45.50
2018-11-05T03:14:26.632Z,45.00
2018-11-05T03:15:26.614Z,45.00
2018-11-05T03:16:26.597Z,45.00
2018-11-05T03:17:26.576Z,46.50
2018-11-05T03:18:26.560Z,43.20
2018-11-05T03:19:26.540Z,44.30
2018-11-05T03:20:26.520Z,45.20
2018-11-05T03:21:26.506Z,44.80
2018-11-05T03:22:26.486Z,44.30
2018-11-05T03:23:26.468Z,43.50
2018-11-05T03:24:26.437Z,44.30
2018-11-05T03:25:26.428Z,44.30
2018-11-05T03:26:26.410Z,43.50
2018-11-05T03:27:26.399Z,43.40
2018-11-05T03:28:26.375Z,44.60
2018-11-05T03:29:26.361Z,42.30
2018-11-05T03:30:26.344Z,44.80
2018-11-05T03:31:26.324Z,44.90
2018-11-05T03:32:26.298Z,42.20
2018-11-05T03:33:26.281Z,45.40
2018-11-05T03:34:26.266Z,44.80
2018-11-05T03:35:26.252Z,43.90
2018-11-05T03:36:26.230Z,43.70
2018-11-05T03:37:26.214Z,44.30
2018-11-05T03:38:26.202Z,44.20
2018-11-05T03:39:26.178Z,42.10
2018-11-05T03:40:26.158Z,43.00
2018-11-05T03:41:26.137Z,42.60
2018-11-05T03:42:26.123Z,42.10
2018-11-05T03:43:26.098Z,42.60
2018-11-05T03:44:26.086Z,42.20
2018-11-05T03:45:26.064Z,42.10
2018-11-05T03:46:26.042Z,42.40
2018-11-05T03:47:26.030Z,42.40
2018-11-05T03:48:26.008Z,43.80
2018-11-05T03:49:25.994Z,42.70
2018-11-05T03:50:25.978Z,40.90
2018-11-05T03:51:25.957Z,41.90
2018-11-05T03:52:25.935Z,41.70
2018-11-05T03:53:25.923Z,42.70
2018-11-05T03:54:25.899Z,41.10
2018-11-05T03:55:25.945Z,43.20
2018-11-05T03:56:25.871Z,41.00
2018-11-05T03:57:25.844Z,41.70
2018-11-05T03:58:25.824Z,41.40
2018-11-05T03:59:25.810Z,41.00
2018-11-05T04:00:25.792Z,41.10
2018-11-05T04:01:25.783Z,40.20
2018-11-05T04:02:25.759Z,41.20
2018-11-05T04:03:25.901Z,41.10
2018-11-05T04:04:25.716Z,41.00
2018-11-05T04:05:25.700Z,42.20
2018-11-05T04:06:25.683Z,41.20
2018-11-05T04:07:25.662Z,40.60
2018-11-05T04:08:25.640Z,40.90
2018-11-05T04:09:25.624Z,40.20
2018-11-05T04:10:25.604Z,41.80
2018-11-05T04:11:25.593Z,40.80
2018-11-05T04:12:25.569Z,39.60
2018-11-05T04:13:25.550Z,40.10
2018-11-05T04:14:25.538Z,41.10
2018-11-05T04:15:25.614Z,39.40
2018-11-05T04:16:25.497Z,39.70
2018-11-05T04:17:25.474Z,40.10
2018-11-05T04:18:25.460Z,40.30
2018-11-05T04:19:25.444Z,39.30
2018-11-05T04:20:25.432Z,40.00
2018-11-05T04:21:25.403Z,40.00
2018-11-05T04:22:25.388Z,40.00
2018-11-05T04:23:25.371Z,39.00
2018-11-05T04:24:25.349Z,41.00
2018-11-05T04:25:25.333Z,40.30
2018-11-05T04:26:25.312Z,39.80
2018-11-05T04:27:25.301Z,41.10
2018-11-05T04:28:25.273Z,42.10
2018-11-05T04:29:25.262Z,39.60
2018-11-05T04:30:25.242Z,41.50
2018-11-05T04:31:25.222Z,41.00
2018-11-05T04:32:25.206Z,40.70
2018-11-05T04:33:25.186Z,41.40
2018-11-05T04:34:25.170Z,40.10
2018-11-05T04:35:25.150Z,41.00
2018-11-05T04:36:25.139Z,41.20
2018-11-05T04:37:25.113Z,41.80
2018-11-05T04:38:25.104Z,40.70
2018-11-05T04:39:25.078Z,41.30
2018-11-05T04:40:25.056Z,41.40
2018-11-05T04:41:25.040Z,42.00
2018-11-05T04:42:25.023Z,42.30
2018-11-05T04:43:25.007Z,41.20
2018-11-05T04:44:24.982Z,42.20
2018-11-05T04:45:24.968Z,41.30
2018-11-05T04:46:24.947Z,41.70
2018-11-05T04:47:24.929Z,41.60
2018-11-05T04:48:24.912Z,42.70
2018-11-05T04:49:24.895Z,40.80
2018-11-05T04:50:24.877Z,40.60
2018-11-05T04:51:24.860Z,41.00
2018-11-05T04:52:24.832Z,41.20
2018-11-05T04:53:24.818Z,42.50
2018-11-05T04:54:24.800Z,41.90
2018-11-05T04:56:13.801Z,36.50
2018-11-05T04:57:13.772Z,43.40
2018-11-05T04:58:13.753Z,41.30
2018-11-05T04:59:13.734Z,43.60
2018-11-05T05:00:13.716Z,43.10
2018-11-05T05:01:13.695Z,42.80
2018-11-05T05:02:13.679Z,42.10
2018-11-05T05:03:13.712Z,41.80
2018-11-05T05:04:13.643Z,41.50
2018-11-05T05:05:13.628Z,42.30
2018-11-05T05:06:13.612Z,42.00
2018-11-05T05:07:13.588Z,41.40
2018-11-05T05:08:13.572Z,40.10
2018-11-05T05:09:13.551Z,42.50
2018-11-05T05:10:13.527Z,42.50
2018-11-05T05:11:13.516Z,42.20
2018-11-05T05:12:13.502Z,41.40
2018-11-05T05:13:13.480Z,42.60
2018-11-05T05:14:13.469Z,42.00
2018-11-05T05:15:13.443Z,41.60
2018-11-05T05:16:13.477Z,42.00
2018-11-05T05:17:13.405Z,41.90
2018-11-05T05:18:13.384Z,42.50
2018-11-05T05:19:13.371Z,42.40
2018-11-05T05:20:13.346Z,42.20
2018-11-05T05:21:13.331Z,42.80
2018-11-05T05:22:13.344Z,42.40
2018-11-05T05:23:13.295Z,43.30
2018-11-05T05:24:13.276Z,42.80
2018-11-05T05:25:13.255Z,42.90
2018-11-05T05:26:13.238Z,39.80
2018-11-05T05:27:13.221Z,41.00
2018-11-05T05:28:13.205Z,41.10
2018-11-05T05:29:13.187Z,42.00
2018-11-05T05:30:13.167Z,41.10
2018-11-05T05:31:13.146Z,41.50
2018-11-05T05:32:13.124Z,42.30
2018-11-05T05:33:13.298Z,42.00
2018-11-05T05:34:13.091Z,42.30
2018-11-05T05:35:13.078Z,41.30
2018-11-05T05:36:13.052Z,41.10
2018-11-05T05:37:13.035Z,40.80
2018-11-05T05:38:13.017Z,39.80
2018-11-05T05:39:12.999Z,42.10
2018-11-05T05:40:12.980Z,39.80
2018-11-05T05:41:13.008Z,40.40
2018-11-05T05:42:12.952Z,41.00
2018-11-05T05:43:12.923Z,40.00
2018-11-05T05:44:12.905Z,39.80
2018-11-05T05:45:12.894Z,41.40
2018-11-05T05:46:12.873Z,41.10
2018-11-05T05:47:12.847Z,39.80
2018-11-05T05:48:12.835Z,40.60
2018-11-05T05:49:12.818Z,40.00
2018-11-05T05:50:12.915Z,39.60
2018-11-05T05:51:12.782Z,39.00
2018-11-05T05:52:12.756Z,40.30
2018-11-05T05:53:12.741Z,40.40
2018-11-05T05:54:12.721Z,39.20
2018-11-05T05:55:12.704Z,39.90
2018-11-05T05:56:12.684Z,39.90
2018-11-05T05:57:12.665Z,41.40
2018-11-05T05:58:12.649Z,40.50
2018-11-05T05:59:12.631Z,41.20
2018-11-05T06:00:12.616Z,39.90
2018-11-05T06:01:12.597Z,39.40
2018-11-05T06:02:12.574Z,40.90
2018-11-05T06:03:12.557Z,41.20
2018-11-05T06:04:12.534Z,40.30
2018-11-05T06:05:12.519Z,41.10
2018-11-05T06:06:12.606Z,40.30
2018-11-05T06:07:12.484Z,40.10
2018-11-05T06:08:12.462Z,41.00
2018-11-05T06:09:12.444Z,40.40
2018-11-05T06:10:12.430Z,41.20
2018-11-05T06:11:12.409Z,41.40
2018-11-05T06:12:12.386Z,40.40
2018-11-05T06:13:12.372Z,41.10
2018-11-05T06:14:12.355Z,40.60
2018-11-05T06:15:12.335Z,41.80
2018-11-05T06:16:12.315Z,40.30
2018-11-05T06:17:12.297Z,40.30
2018-11-05T06:18:12.276Z,40.30
2018-11-05T06:19:12.259Z,40.20
2018-11-05T06:20:12.239Z,40.20
2018-11-05T06:21:12.225Z,40.90
2018-11-05T06:22:12.204Z,39.70
2018-11-05T06:23:12.193Z,39.90
2018-11-05T06:24:12.171Z,40.00
2018-11-05T06:25:12.150Z,40.40
2018-11-05T06:26:12.126Z,40.10
2018-11-05T06:27:12.112Z,39.00
2018-11-05T06:28:12.089Z,40.00
2018-11-05T06:29:12.075Z,41.30
2018-11-05T06:30:12.060Z,39.90
2018-11-05T06:31:12.040Z,40.70
2018-11-05T06:32:12.018Z,39.80
2018-11-05T06:33:11.999Z,40.50
2018-11-05T06:34:11.981Z,39.70
2018-11-05T06:35:12.027Z,41.10
2018-11-05T06:36:11.941Z,40.40
2018-11-05T06:37:11.926Z,39.60
2018-11-05T06:38:11.907Z,39.30
2018-11-05T06:39:11.885Z,39.10
2018-11-05T06:40:11.874Z,40.10
2018-11-05T06:41:11.919Z,38.50
2018-11-05T06:42:11.830Z,40.30
2018-11-05T06:43:11.813Z,40.30
2018-11-05T06:44:11.876Z,39.90
2018-11-05T06:45:11.859Z,38.70
2018-11-05T06:46:11.754Z,39.10
2018-11-05T06:47:11.741Z,40.40
2018-11-05T06:48:11.724Z,39.10
2018-11-05T06:49:11.700Z,39.40
2018-11-05T06:50:11.688Z,38.30
2018-11-05T06:51:11.668Z,39.20
2018-11-05T06:52:11.648Z,40.20
2018-11-05T06:53:11.632Z,39.00
2018-11-05T06:54:11.612Z,39.90
2018-11-05T06:55:11.588Z,39.30
2018-11-05T06:56:11.574Z,40.30
2018-11-05T06:57:11.552Z,40.10
2018-11-05T06:58:11.534Z,37.60
2018-11-05T06:59:11.514Z,39.60
2018-11-05T07:00:11.502Z,39.40
2018-11-05T07:01:11.482Z,38.60
2018-11-05T07:02:11.465Z,38.70
2018-11-05T07:03:11.448Z,39.30
2018-11-05T07:04:11.425Z,37.50
2018-11-05T07:05:11.414Z,39.20
2018-11-05T07:06:11.389Z,39.30
2018-11-05T07:07:11.369Z,39.30
2018-11-05T07:08:11.348Z,38.00
2018-11-05T07:09:11.330Z,39.30
2018-11-05T07:10:11.311Z,38.40
2018-11-05T07:11:11.351Z,38.40
2018-11-05T07:12:11.276Z,38.50
2018-11-05T07:13:11.256Z,37.90
2018-11-05T07:14:11.242Z,37.10
2018-11-05T07:15:11.217Z,36.40
2018-11-05T07:16:11.201Z,37.10
2018-11-05T07:17:11.182Z,37.70
2018-11-05T07:18:11.191Z,37.30
2018-11-05T07:19:11.595Z,36.90
2018-11-05T07:20:11.127Z,36.30
2018-11-05T07:21:11.112Z,36.20
2018-11-05T07:22:11.092Z,36.80
2018-11-05T07:23:11.070Z,36.50
2018-11-05T07:24:11.052Z,37.20
2018-11-05T07:25:11.039Z,38.00
2018-11-05T07:26:11.015Z,36.60
2018-11-05T07:27:11.005Z,37.20
2018-11-05T07:28:10.982Z,36.60
2018-11-05T07:29:10.961Z,36.10
2018-11-05T07:30:10.938Z,37.50
2018-11-05T07:31:10.920Z,36.80
2018-11-05T07:32:10.905Z,36.60
2018-11-05T07:33:10.956Z,36.10
2018-11-05T07:34:10.920Z,37.30
2018-11-05T07:35:10.845Z,37.60
2018-11-05T07:36:10.829Z,37.70
2018-11-05T07:37:10.810Z,35.80
2018-11-05T07:38:10.792Z,35.30
2018-11-05T07:39:10.777Z,37.80
2018-11-05T07:40:10.754Z,36.10
2018-11-05T07:41:10.740Z,36.50
2018-11-05T07:42:10.759Z,36.80
2018-11-05T07:43:10.707Z,36.00
2018-11-05T07:44:10.682Z,36.60
2018-11-05T07:45:10.660Z,36.40
2018-11-05T07:46:10.648Z,35.40
2018-11-05T07:47:10.626Z,35.90
2018-11-05T07:48:10.606Z,37.20
2018-11-05T07:49:10.591Z,36.50
2018-11-05T07:50:10.703Z,37.00
2018-11-05T07:51:10.551Z,36.70
2018-11-05T07:52:10.537Z,35.30
2018-11-05T07:53:10.516Z,35.40
2018-11-05T07:54:10.498Z,35.40
2018-11-05T07:55:10.477Z,36.60
2018-11-05T07:56:10.499Z,35.30
2018-11-05T07:57:10.444Z,35.40
2018-11-05T07:58:10.422Z,35.60
2018-11-05T07:59:10.401Z,34.30
2018-11-05T08:00:10.385Z,34.50
2018-11-05T08:01:10.367Z,35.60
2018-11-05T08:02:10.347Z,34.80
2018-11-05T08:03:10.330Z,35.20
2018-11-05T08:04:10.326Z,34.50
2018-11-05T08:05:10.295Z,34.40
2018-11-05T08:06:10.275Z,35.30
2018-11-05T08:07:10.255Z,35.50
2018-11-05T08:08:10.337Z,34.70
2018-11-05T08:09:10.231Z,35.40
2018-11-05T08:10:10.205Z,35.90
2018-11-05T08:11:10.186Z,36.20
2018-11-05T08:12:10.169Z,37.30
2018-11-05T08:13:10.147Z,36.30
2018-11-05T08:14:10.136Z,35.20
2018-11-05T08:15:10.105Z,35.90
2018-11-05T08:16:10.093Z,36.70
2018-11-05T08:17:10.073Z,36.00
2018-11-05T08:18:10.061Z,35.40
2018-11-05T08:19:10.039Z,35.00
2018-11-05T08:20:10.029Z,35.30
2018-11-05T08:21:10.005Z,34.90
2018-11-05T08:22:09.989Z,35.20
2018-11-05T08:23:09.968Z,35.40
2018-11-05T08:24:09.954Z,34.90
2018-11-05T08:25:09.937Z,35.70
2018-11-05T08:26:09.915Z,35.20
2018-11-05T08:27:09.897Z,35.90
2018-11-05T08:28:09.890Z,35.90
2018-11-05T08:29:09.867Z,35.50
2018-11-05T08:30:09.838Z,35.40
2018-11-05T08:31:09.825Z,34.60
2018-11-05T08:32:09.803Z,35.80
2018-11-05T08:33:09.785Z,35.30
2018-11-05T08:34:09.825Z,35.70
2018-11-05T08:35:09.748Z,34.10
2018-11-05T08:36:09.732Z,35.60
2018-11-05T08:37:09.716Z,35.10
2018-11-05T08:38:09.698Z,35.60
2018-11-05T08:39:09.679Z,34.70
2018-11-05T08:40:09.722Z,34.90
2018-11-05T08:41:09.641Z,33.60
2018-11-05T08:42:09.625Z,33.50
2018-11-05T08:43:09.614Z,33.90
2018-11-05T08:44:09.593Z,33.90
2018-11-05T08:45:09.571Z,34.70
2018-11-05T08:46:09.553Z,34.30
2018-11-05T08:47:09.536Z,33.90
2018-11-05T08:48:09.515Z,33.80
2018-11-05T08:49:09.501Z,33.70
2018-11-05T08:50:09.548Z,34.20
2018-11-05T08:51:09.756Z,34.90
2018-11-05T08:52:09.454Z,33.50
2018-11-05T08:53:09.428Z,34.30
2018-11-05T08:54:09.488Z,32.90
2018-11-05T08:55:09.405Z,32.70
2018-11-05T08:56:09.377Z,34.00
2018-11-05T08:57:09.369Z,33.00
2018-11-05T08:58:09.344Z,33.40
2018-11-05T08:59:09.334Z,34.30
2018-11-05T09:00:09.357Z,32.60
2018-11-05T09:01:09.394Z,33.60
2018-11-05T09:02:09.283Z,33.70
2018-11-05T09:03:09.303Z,32.90
2018-11-05T09:04:09.241Z,33.20
2018-11-05T09:05:09.296Z,31.70
2018-11-05T09:06:09.200Z,31.80
2018-11-05T09:07:09.194Z,31.60
2018-11-05T09:08:09.196Z,31.50
2018-11-05T09:09:09.152Z,29.50
2018-11-05T09:10:09.157Z,29.20
2018-11-05T09:11:09.645Z,29.50
2018-11-05T09:12:09.136Z,29.70
2018-11-05T09:13:09.086Z,29.10
2018-11-05T09:14:09.070Z,28.80
2018-11-05T09:15:09.055Z,27.50
2018-11-05T09:16:09.080Z,28.40
2018-11-05T09:17:09.020Z,28.40
2018-11-05T09:18:09.003Z,28.70
2018-11-05T09:19:08.994Z,26.90
2018-11-05T09:20:08.976Z,27.10
2018-11-05T09:21:08.956Z,27.60
2018-11-05T09:22:08.945Z,28.00
2018-11-05T09:23:08.934Z,27.00
2018-11-05T09:24:08.912Z,27.70
2018-11-05T09:25:08.897Z,26.80
2018-11-05T09:26:08.884Z,27.20
2018-11-05T09:27:08.903Z,28.00
2018-11-05T09:28:08.855Z,26.30
2018-11-05T09:29:08.838Z,26.70
2018-11-05T09:30:08.824Z,26.30
2018-11-05T09:31:08.808Z,26.00
2018-11-05T09:32:08.806Z,26.60
2018-11-05T09:33:08.779Z,26.40
2018-11-05T09:34:08.770Z,26.10
2018-11-05T09:35:08.752Z,26.40
2018-11-05T09:36:08.743Z,25.40
2018-11-05T09:37:08.725Z,25.70
2018-11-05T09:38:08.714Z,26.90
2018-11-05T09:39:08.695Z,27.20
2018-11-05T09:40:08.687Z,26.80
2018-11-05T09:41:08.669Z,26.70
2018-11-05T09:42:08.660Z,26.10
2018-11-05T09:43:08.646Z,26.60
2018-11-05T09:44:08.633Z,27.10
2018-11-05T09:45:08.621Z,26.80
2018-11-05T09:46:08.613Z,26.30
2018-11-05T09:47:08.594Z,26.00
2018-11-05T09:48:08.577Z,25.00
2018-11-05T09:49:08.563Z,24.50
2018-11-05T09:50:08.550Z,26.30
2018-11-05T09:51:08.539Z,25.50
2018-11-05T09:52:08.531Z,26.20
2018-11-05T09:53:08.516Z,26.90
2018-11-05T09:54:08.503Z,25.80
2018-11-05T09:55:08.488Z,25.90
2018-11-05T09:56:08.477Z,25.50
2018-11-05T09:57:08.500Z,25.30
2018-11-05T09:58:08.451Z,26.10
2018-11-05T09:59:08.439Z,24.80
2018-11-05T10:00:08.429Z,25.30
2018-11-05T10:01:08.408Z,25.80
2018-11-05T10:02:08.432Z,24.80
2018-11-05T10:03:08.543Z,24.70
2018-11-05T10:04:08.399Z,24.60
2018-11-05T10:05:08.617Z,25.60
2018-11-05T10:06:08.349Z,25.20
2018-11-05T10:07:08.336Z,25.00
2018-11-05T10:08:08.325Z,26.20
2018-11-05T10:09:08.313Z,26.00
2018-11-05T10:10:08.317Z,26.10
2018-11-05T10:11:08.289Z,25.20
2018-11-05T10:12:08.271Z,25.90
2018-11-05T10:13:08.254Z,26.20
2018-11-05T10:14:08.244Z,26.70
2018-11-05T10:15:08.247Z,26.10
2018-11-05T10:16:08.224Z,25.40
2018-11-05T10:17:08.213Z,26.10
2018-11-05T10:18:08.202Z,25.60
2018-11-05T10:19:08.181Z,25.30
2018-11-05T10:20:08.172Z,25.60
2018-11-05T10:21:08.157Z,26.00
2018-11-05T10:22:08.146Z,25.80
2018-11-05T10:23:08.132Z,26.30
2018-11-05T10:24:08.118Z,26.90
2018-11-05T10:25:08.297Z,27.20
2018-11-05T10:26:08.109Z,26.30
2018-11-05T10:27:08.082Z,26.10
2018-11-05T10:28:08.069Z,25.40
2018-11-05T10:29:08.053Z,26.00
2018-11-05T10:30:08.039Z,28.40
2018-11-05T10:31:08.031Z,27.00
2018-11-05T10:32:08.066Z,24.70
2018-11-05T10:33:08.090Z,26.60
2018-11-05T10:34:07.989Z,25.60
2018-11-05T10:35:07.978Z,25.40
2018-11-05T10:36:07.968Z,25.60
2018-11-05T10:37:07.950Z,25.60
2018-11-05T10:38:07.936Z,26.10
2018-11-05T10:39:07.929Z,25.10
2018-11-05T10:40:07.917Z,25.30
2018-11-05T10:41:07.898Z,25.10
2018-11-05T10:42:07.884Z,25.60
2018-11-05T10:43:07.881Z,26.00
2018-11-05T10:44:07.893Z,26.20
2018-11-05T10:45:07.849Z,25.30
2018-11-05T10:46:07.838Z,26.00
2018-11-05T10:47:07.819Z,25.00
2018-11-05T10:48:07.806Z,26.50
2018-11-05T10:49:07.796Z,26.10
2018-11-05T10:50:07.780Z,25.80
2018-11-05T10:51:07.824Z,26.40
2018-11-05T10:52:08.078Z,25.90
2018-11-05T10:53:07.736Z,25.30
2018-11-05T10:54:07.730Z,26.20
2018-11-05T10:55:07.713Z,25.80
2018-11-05T10:56:07.701Z,25.30
2018-11-05T10:57:07.685Z,25.30
2018-11-05T10:58:07.729Z,25.60
2018-11-05T10:59:07.656Z,24.60
2018-11-05T11:00:07.649Z,26.20
2018-11-05T11:01:07.633Z,25.50
2018-11-05T11:02:07.619Z,25.30
2018-11-05T11:03:07.608Z,24.40
2018-11-05T11:04:07.693Z,26.00
2018-11-05T11:05:07.578Z,25.10
2018-11-05T11:06:07.564Z,25.10
2018-11-05T11:07:07.552Z,25.80
2018-11-05T11:08:07.538Z,24.90
2018-11-05T11:09:07.531Z,24.70
2018-11-05T11:10:07.514Z,26.10
2018-11-05T11:11:07.508Z,24.30
2018-11-05T11:12:07.487Z,24.80
2018-11-05T11:13:07.470Z,25.50
2018-11-05T11:14:07.456Z,25.70
2018-11-05T11:15:07.503Z,25.20
2018-11-05T11:16:07.433Z,25.80
2018-11-05T11:17:07.421Z,25.40
2018-11-05T11:18:07.404Z,24.70
2018-11-05T11:19:07.437Z,24.10
2018-11-05T11:20:07.375Z,25.10
2018-11-05T11:21:07.365Z,24.40
2018-11-05T11:22:07.436Z,23.80
2018-11-05T11:23:07.334Z,24.90
2018-11-05T11:24:07.322Z,25.40
2018-11-05T11:25:07.307Z,24.00
2018-11-05T11:26:07.293Z,25.30
2018-11-05T11:27:07.279Z,25.30
2018-11-05T11:28:07.345Z,25.20
2018-11-05T11:29:07.337Z,24.60
2018-11-05T11:30:07.236Z,25.10
2018-11-05T11:31:07.228Z,25.30
2018-11-05T11:32:07.210Z,25.30
2018-11-05T11:33:07.194Z,24.80
2018-11-05T11:34:07.178Z,25.50
2018-11-05T11:35:07.168Z,25.70
2018-11-05T11:36:07.162Z,24.70
2018-11-05T11:37:07.233Z,26.90
2018-11-05T11:38:07.126Z,24.90
2018-11-05T11:39:07.113Z,24.50
2018-11-05T11:40:07.098Z,25.80
2018-11-05T11:41:07.084Z,26.10
2018-11-05T11:42:07.072Z,25.90
2018-11-05T11:43:07.059Z,27.30
2018-11-05T11:44:07.050Z,26.50
2018-11-05T11:45:07.029Z,26.00
2018-11-05T11:46:07.017Z,25.70
2018-11-05T11:47:07.001Z,25.70
2018-11-05T11:48:06.998Z,24.00
2018-11-05T11:49:06.971Z,25.60
2018-11-05T11:50:06.958Z,26.10
2018-11-05T11:51:06.948Z,25.10
2018-11-05T11:52:06.926Z,24.90
2018-11-05T11:53:07.001Z,24.30
2018-11-05T11:54:06.902Z,25.40
2018-11-05T11:55:06.930Z,25.20
2018-11-05T11:56:06.873Z,25.40
2018-11-05T11:57:06.857Z,24.70
2018-11-05T11:58:06.843Z,23.90
2018-11-05T11:59:06.857Z,25.80
2018-11-05T12:00:06.815Z,24.30
2018-11-05T12:01:06.803Z,23.70
2018-11-05T12:02:06.790Z,25.30
2018-11-05T12:03:06.802Z,24.00
2018-11-05T12:04:06.805Z,24.90
2018-11-05T12:05:06.781Z,24.70
2018-11-05T12:06:06.745Z,24.70
2018-11-05T12:07:06.717Z,24.70
2018-11-05T12:08:06.701Z,24.80
2018-11-05T12:09:06.697Z,24.70
2018-11-05T12:10:06.672Z,24.70
2018-11-05T12:11:06.657Z,24.90
2018-11-05T12:12:06.643Z,24.10
2018-11-05T12:13:06.627Z,24.40
2018-11-05T12:14:06.674Z,25.50
2018-11-05T12:15:06.808Z,25.10
2018-11-05T12:16:06.586Z,24.60
2018-11-05T12:17:06.573Z,24.70
2018-11-05T12:18:06.554Z,24.70
2018-11-05T12:19:06.545Z,25.10
2018-11-05T12:20:06.526Z,24.20
2018-11-05T12:21:06.515Z,25.20
2018-11-05T12:22:06.495Z,23.90
2018-11-05T12:23:06.489Z,24.10
2018-11-05T12:24:06.473Z,24.20
2018-11-05T12:25:06.515Z,24.90
2018-11-05T12:26:06.442Z,24.20
2018-11-05T12:27:06.429Z,24.10
2018-11-05T12:28:06.416Z,23.80
2018-11-05T12:29:06.396Z,24.70
2018-11-05T12:30:06.384Z,23.70
2018-11-05T12:31:06.370Z,24.40
2018-11-05T12:32:06.406Z,25.40
2018-11-05T12:33:06.341Z,24.00
2018-11-05T12:34:06.327Z,23.80
2018-11-05T12:35:06.311Z,24.70
2018-11-05T12:36:06.293Z,24.30
2018-11-05T12:37:06.283Z,23.80
2018-11-05T12:38:06.264Z,24.80
2018-11-05T12:39:06.255Z,24.50
2018-11-05T12:40:06.239Z,24.20
2018-11-05T12:41:06.223Z,23.50
2018-11-05T12:42:06.211Z,23.40
2018-11-05T12:43:06.197Z,24.40
2018-11-05T12:44:06.178Z,23.70
2018-11-05T12:45:06.267Z,24.00
2018-11-05T12:46:06.156Z,23.00
2018-11-05T12:47:06.135Z,23.90
2018-11-05T12:48:06.121Z,24.30
2018-11-05T12:49:06.109Z,23.30
2018-11-05T12:50:06.097Z,24.30
2018-11-05T12:51:06.079Z,23.20
2018-11-05T12:52:06.064Z,23.30
2018-11-05T12:53:06.057Z,23.00